sensor_id;sensor_type;location;lat;lon;timestamp;P1;durP1;ratioP1;P2;durP2;ratioP2
74912;SDS011;63878;55.624;37.304;2023-04-02T00:09:42;25.37;;;11.63;;
74912;SDS011;63878;55.624;37.304;2023-04-02T00:20:03;20.63;;;10.47;;
74912;SDS011;63878;55.624;37.304;2023-04-02T00:30:06;45.33;;;16.90;;
74912;SDS011;63878;55.624;37.304;2023-04-02T00:40:11;44.78;;;21.08;;
74912;SDS011;63878;55.624;37.304;2023-04-02T00:50:34;38.33;;;18.15;;
74912;SDS011;63878;55.624;37.304;2023-04-02T01:00:40;42.97;;;17.63;;
74912;SDS011;63878;55.624;37.304;2023-04-02T01:11:01;32.85;;;13.98;;
74912;SDS011;63878;55.624;37.304;2023-04-02T01:21:10;29.33;;;15.15;;
74912;SDS011;63878;55.624;37.304;2023-04-02T01:31:13;27.02;;;10.90;;
74912;SDS011;63878;55.624;37.304;2023-04-02T01:41:38;23.98;;;10.60;;
74912;SDS011;63878;55.624;37.304;2023-04-02T01:51:45;24.42;;;11.40;;
74912;SDS011;63878;55.624;37.304;2023-04-02T02:02:05;23.70;;;10.02;;
74912;SDS011;63878;55.624;37.304;2023-04-02T02:12:13;20.45;;;9.98;;
74912;SDS011;63878;55.624;37.304;2023-04-02T02:32:31;19.63;;;9.52;;
74912;SDS011;63878;55.624;37.304;2023-04-02T02:42:39;25.40;;;11.27;;
74912;SDS011;63878;55.624;37.304;2023-04-02T02:52:49;21.27;;;9.68;;
74912;SDS011;63878;55.624;37.304;2023-04-02T03:02:52;21.70;;;10.60;;
74912;SDS011;63878;55.624;37.304;2023-04-02T03:12:57;19.95;;;9.50;;
74912;SDS011;63878;55.624;37.304;2023-04-02T03:23:44;20.17;;;9.75;;
74912;SDS011;63878;55.624;37.304;2023-04-02T03:34:00;16.88;;;8.63;;
74912;SDS011;63878;55.624;37.304;2023-04-02T03:44:14;17.77;;;8.50;;
74912;SDS011;63878;55.624;37.304;2023-04-02T03:54:20;13.32;;;6.82;;
74912;SDS011;63878;55.624;37.304;2023-04-02T04:04:21;15.27;;;7.05;;
74912;SDS011;63878;55.624;37.304;2023-04-02T04:24:36;11.95;;;6.43;;
74912;SDS011;63878;55.624;37.304;2023-04-02T04:34:39;11.60;;;7.13;;
74912;SDS011;63878;55.624;37.304;2023-04-02T05:05:37;14.98;;;7.25;;
74912;SDS011;63878;55.624;37.304;2023-04-02T05:15:48;18.17;;;8.25;;
74912;SDS011;63878;55.624;37.304;2023-04-02T05:26:14;12.07;;;6.43;;
74912;SDS011;63878;55.624;37.304;2023-04-02T05:36:20;17.50;;;8.07;;
74912;SDS011;63878;55.624;37.304;2023-04-02T05:46:25;15.73;;;7.55;;
74912;SDS011;63878;55.624;37.304;2023-04-02T05:56:48;14.27;;;7.60;;
74912;SDS011;63878;55.624;37.304;2023-04-02T06:07:00;18.02;;;8.77;;
74912;SDS011;63878;55.624;37.304;2023-04-02T06:17:15;14.93;;;7.97;;
74912;SDS011;63878;55.624;37.304;2023-04-02T06:27:17;16.08;;;9.10;;
74912;SDS011;63878;55.624;37.304;2023-04-02T06:37:24;18.42;;;9.25;;
74912;SDS011;63878;55.624;37.304;2023-04-02T06:47:40;18.85;;;9.65;;
74912;SDS011;63878;55.624;37.304;2023-04-02T06:57:43;16.08;;;9.05;;
74912;SDS011;63878;55.624;37.304;2023-04-02T07:07:44;17.03;;;9.97;;
74912;SDS011;63878;55.624;37.304;2023-04-02T07:17:45;12.90;;;7.90;;
74912;SDS011;63878;55.624;37.304;2023-04-02T07:27:46;13.30;;;7.68;;
74912;SDS011;63878;55.624;37.304;2023-04-02T07:37:46;14.50;;;8.82;;
74912;SDS011;63878;55.624;37.304;2023-04-02T07:47:47;14.15;;;8.55;;
74912;SDS011;63878;55.624;37.304;2023-04-02T08:07:53;18.92;;;10.30;;
74912;SDS011;63878;55.624;37.304;2023-04-02T08:17:55;13.25;;;7.68;;
74912;SDS011;63878;55.624;37.304;2023-04-02T08:27:55;15.80;;;7.88;;
74912;SDS011;63878;55.624;37.304;2023-04-02T08:37:56;14.80;;;8.98;;
74912;SDS011;63878;55.624;37.304;2023-04-02T08:47:57;16.00;;;9.02;;
74912;SDS011;63878;55.624;37.304;2023-04-02T08:58:12;13.85;;;8.32;;
74912;SDS011;63878;55.624;37.304;2023-04-02T09:08:29;18.23;;;10.50;;
74912;SDS011;63878;55.624;37.304;2023-04-02T09:18:32;18.17;;;9.82;;
74912;SDS011;63878;55.624;37.304;2023-04-02T09:28:33;12.35;;;8.05;;
74912;SDS011;63878;55.624;37.304;2023-04-02T09:38:33;14.87;;;8.57;;
74912;SDS011;63878;55.624;37.304;2023-04-02T09:48:37;15.02;;;9.30;;
74912;SDS011;63878;55.624;37.304;2023-04-02T09:58:42;14.70;;;7.47;;
74912;SDS011;63878;55.624;37.304;2023-04-02T10:08:44;17.52;;;8.27;;
74912;SDS011;63878;55.624;37.304;2023-04-02T10:18:49;15.73;;;9.05;;
74912;SDS011;63878;55.624;37.304;2023-04-02T10:29:11;8.35;;;5.25;;
74912;SDS011;63878;55.624;37.304;2023-04-02T10:40:20;15.60;;;8.68;;
74912;SDS011;63878;55.624;37.304;2023-04-02T10:50:17;13.68;;;8.38;;
74912;SDS011;63878;55.624;37.304;2023-04-02T11:00:40;11.95;;;7.47;;
74912;SDS011;63878;55.624;37.304;2023-04-02T11:10:45;14.48;;;8.18;;
74912;SDS011;63878;55.624;37.304;2023-04-02T11:30:49;10.73;;;6.60;;
74912;SDS011;63878;55.624;37.304;2023-04-02T11:40:51;13.17;;;7.33;;
74912;SDS011;63878;55.624;37.304;2023-04-02T11:50:56;15.35;;;7.82;;
74912;SDS011;63878;55.624;37.304;2023-04-02T12:11:37;11.20;;;4.82;;
74912;SDS011;63878;55.624;37.304;2023-04-02T12:21:39;8.25;;;5.53;;
74912;SDS011;63878;55.624;37.304;2023-04-02T12:31:45;8.60;;;5.03;;
74912;SDS011;63878;55.624;37.304;2023-04-02T12:41:47;13.85;;;7.85;;
74912;SDS011;63878;55.624;37.304;2023-04-02T12:51:47;13.77;;;7.23;;
74912;SDS011;63878;55.624;37.304;2023-04-02T13:01:56;12.10;;;6.15;;
74912;SDS011;63878;55.624;37.304;2023-04-02T13:11:59;14.43;;;7.47;;
74912;SDS011;63878;55.624;37.304;2023-04-02T13:22:01;12.00;;;6.93;;
74912;SDS011;63878;55.624;37.304;2023-04-02T13:32:04;10.88;;;5.30;;
74912;SDS011;63878;55.624;37.304;2023-04-02T13:42:11;10.25;;;6.15;;
74912;SDS011;63878;55.624;37.304;2023-04-02T13:52:15;8.37;;;5.90;;
74912;SDS011;63878;55.624;37.304;2023-04-02T14:02:17;8.88;;;5.28;;
74912;SDS011;63878;55.624;37.304;2023-04-02T15:04:13;7.20;;;4.93;;
74912;SDS011;63878;55.624;37.304;2023-04-02T15:14:24;9.63;;;6.18;;
74912;SDS011;63878;55.624;37.304;2023-04-02T16:26:31;11.90;;;6.57;;
74912;SDS011;63878;55.624;37.304;2023-04-02T16:36:46;10.65;;;5.68;;
74912;SDS011;63878;55.624;37.304;2023-04-02T16:47:11;8.35;;;5.35;;
74912;SDS011;63878;55.624;37.304;2023-04-02T17:08:07;8.68;;;5.05;;
74912;SDS011;63878;55.624;37.304;2023-04-02T17:18:17;9.48;;;5.53;;
74912;SDS011;63878;55.624;37.304;2023-04-02T17:28:21;10.57;;;5.00;;
74912;SDS011;63878;55.624;37.304;2023-04-02T17:48:59;10.70;;;5.82;;
74912;SDS011;63878;55.624;37.304;2023-04-02T17:59:20;7.65;;;5.13;;
74912;SDS011;63878;55.624;37.304;2023-04-02T18:51:18;8.13;;;5.43;;
74912;SDS011;63878;55.624;37.304;2023-04-02T19:01:29;8.60;;;5.97;;
74912;SDS011;63878;55.624;37.304;2023-04-02T19:11:36;11.38;;;5.82;;
74912;SDS011;63878;55.624;37.304;2023-04-02T19:42:22;10.02;;;6.00;;
74912;SDS011;63878;55.624;37.304;2023-04-02T19:52:30;11.80;;;5.78;;
74912;SDS011;63878;55.624;37.304;2023-04-02T20:02:31;12.57;;;6.55;;
74912;SDS011;63878;55.624;37.304;2023-04-02T20:12:32;10.53;;;6.57;;
74912;SDS011;63878;55.624;37.304;2023-04-02T20:22:32;11.27;;;6.80;;
74912;SDS011;63878;55.624;37.304;2023-04-02T20:32:33;10.88;;;6.03;;
74912;SDS011;63878;55.624;37.304;2023-04-02T20:42:33;9.80;;;5.47;;
74912;SDS011;63878;55.624;37.304;2023-04-02T20:52:34;9.25;;;5.63;;
74912;SDS011;63878;55.624;37.304;2023-04-02T21:02:34;7.18;;;5.30;;
74912;SDS011;63878;55.624;37.304;2023-04-02T21:12:35;7.65;;;4.32;;
74912;SDS011;63878;55.624;37.304;2023-04-02T21:22:35;7.15;;;4.63;;
74912;SDS011;63878;55.624;37.304;2023-04-02T21:32:36;7.28;;;4.55;;
74912;SDS011;63878;55.624;37.304;2023-04-02T21:42:37;7.28;;;4.90;;
74912;SDS011;63878;55.624;37.304;2023-04-02T21:52:37;12.15;;;5.53;;
74912;SDS011;63878;55.624;37.304;2023-04-02T22:02:38;8.85;;;4.70;;
74912;SDS011;63878;55.624;37.304;2023-04-02T22:12:38;7.05;;;5.05;;
74912;SDS011;63878;55.624;37.304;2023-04-02T22:22:39;8.20;;;5.93;;
74912;SDS011;63878;55.624;37.304;2023-04-02T22:32:39;11.15;;;6.18;;
74912;SDS011;63878;55.624;37.304;2023-04-02T22:42:40;9.30;;;5.45;;
74912;SDS011;63878;55.624;37.304;2023-04-02T22:52:41;8.60;;;5.78;;
74912;SDS011;63878;55.624;37.304;2023-04-02T23:02:42;8.73;;;5.13;;
74912;SDS011;63878;55.624;37.304;2023-04-02T23:12:43;7.27;;;4.40;;
74912;SDS011;63878;55.624;37.304;2023-04-02T23:22:43;7.63;;;5.35;;
74912;SDS011;63878;55.624;37.304;2023-04-02T23:32:44;7.67;;;5.27;;
74912;SDS011;63878;55.624;37.304;2023-04-02T23:42:44;6.65;;;4.85;;
74912;SDS011;63878;55.624;37.304;2023-04-02T23:52:45;8.20;;;5.10;;
